createdAt,value
2018-05-15T00:00:33.771Z,21.3
2018-05-15T00:01:22.885Z,21.3
2018-05-15T00:02:13.229Z,21.2
2018-05-15T00:03:53.621Z,21.1
2018-05-15T00:06:23.261Z,21.2
2018-05-15T00:07:14.216Z,21.2
2018-05-15T00:08:03.142Z,21.2
2018-05-15T00:08:54.113Z,21.2
2018-05-15T00:09:43.173Z,21.1
2018-05-15T00:10:34.373Z,21
2018-05-15T00:11:23.038Z,20.9
2018-05-15T00:12:13.956Z,20.9
2018-05-15T00:13:03.478Z,20.9
2018-05-15T00:13:53.844Z,20.9
2018-05-15T00:14:43.584Z,20.9
2018-05-15T00:15:33.124Z,21
2018-05-15T00:16:24.268Z,21.1
2018-05-15T00:17:14.339Z,21
2018-05-15T00:18:03.853Z,20.9
2018-05-15T00:18:54.758Z,20.9
2018-05-15T00:19:44.606Z,20.9
2018-05-15T00:20:34.043Z,21
2018-05-15T00:21:24.365Z,21
2018-05-15T00:22:14.690Z,20.9
2018-05-15T00:23:04.789Z,20.9
2018-05-15T00:23:54.575Z,20.9
2018-05-15T00:24:45.168Z,20.9
2018-05-15T00:25:34.971Z,20.9
2018-05-15T00:26:25.018Z,21
2018-05-15T06:31:41.742Z,21.9
2018-05-15T06:34:05.966Z,22.1
2018-05-15T11:21:27.386Z,23.7
2018-05-15T11:22:17.317Z,23.7
2018-05-15T11:23:06.847Z,23.7
2018-05-15T11:23:57.489Z,23.7
2018-05-15T11:24:47.567Z,23.7
2018-05-15T11:25:37.517Z,23.7
2018-05-15T11:26:27.107Z,23.7
2018-05-15T11:27:17.669Z,23.6
2018-05-15T11:28:07.760Z,23.7
2018-05-15T11:28:58.111Z,23.6
2018-05-15T11:29:47.959Z,23.7
2018-05-15T11:30:38.991Z,23.7
2018-05-15T11:31:27.177Z,23.7
2018-05-15T11:32:18.427Z,23.8
2018-05-15T11:33:07.690Z,23.8
2018-05-15T11:33:58.039Z,23.8
2018-05-15T11:34:48.044Z,23.8
2018-05-15T11:35:39.587Z,23.7
2018-05-15T11:36:27.845Z,23.8
2018-05-15T11:37:18.207Z,23.8
2018-05-15T11:38:07.990Z,23.8
2018-05-15T11:38:58.069Z,23.8
2018-05-15T11:39:47.882Z,23.8
2018-05-15T11:40:38.202Z,23.8
2018-05-15T11:41:29.586Z,23.7
2018-05-15T11:42:18.840Z,23.7
2018-05-15T11:43:08.473Z,23.7
2018-05-15T11:43:57.980Z,23.7
2018-05-15T11:44:49.037Z,23.8
2018-05-15T11:45:38.555Z,23.8
2018-05-15T11:46:28.938Z,23.8
2018-05-15T11:47:20.131Z,23.8
2018-05-15T11:48:18.346Z,23.9
2018-05-15T11:49:15.413Z,23.9
2018-05-15T11:50:06.638Z,23.9
2018-05-15T11:50:59.131Z,23.9
2018-05-15T11:51:42.909Z,23.9
2018-05-15T11:52:35.689Z,23.9
2018-05-15T11:53:22.611Z,23.8
2018-05-15T11:54:00.851Z,23.8
2018-05-15T11:54:49.529Z,23.8
2018-05-15T11:55:50.773Z,23.8
2018-05-15T11:56:30.561Z,23.8
2018-05-15T11:57:19.761Z,23.8
2018-05-15T11:58:10.910Z,23.8
2018-05-15T11:58:59.477Z,23.8
2018-05-15T11:59:51.244Z,23.8
2018-05-15T12:00:39.963Z,23.8
2018-05-15T12:01:30.612Z,23.8
2018-05-15T12:02:20.224Z,23.8
2018-05-15T12:03:10.194Z,23.8
2018-05-15T12:04:02.367Z,23.8
2018-05-15T12:04:50.557Z,23.8
2018-05-15T12:05:40.085Z,23.8
2018-05-15T12:06:31.700Z,23.8
2018-05-15T12:07:21.019Z,23.8
2018-05-15T12:08:12.227Z,23.9
2018-05-15T12:09:01.356Z,23.9
2018-05-15T12:09:50.942Z,23.8
2018-05-15T12:10:42.228Z,23.8
2018-05-15T12:11:31.076Z,23.8
2018-05-15T12:12:20.879Z,23.8
2018-05-15T12:13:11.219Z,23.8
2018-05-15T12:14:01.058Z,23.8
2018-05-15T12:14:49.596Z,23.8
2018-05-15T12:15:40.532Z,23.9
2018-05-15T12:16:30.895Z,23.9
2018-05-15T12:17:21.312Z,23.8
2018-05-15T12:18:11.909Z,23.9
2018-05-15T12:19:01.137Z,23.9
2018-05-15T12:19:51.975Z,23.9
2018-05-15T12:20:41.565Z,23.9
2018-05-15T12:21:31.546Z,23.8
2018-05-15T12:22:21.463Z,23.8
2018-05-15T12:23:10.871Z,23.9
2018-05-15T12:24:02.309Z,23.9
2018-05-15T12:24:52.113Z,23.9
2018-05-15T12:25:42.353Z,23.9
2018-05-15T12:26:32.515Z,23.9
2018-05-15T12:27:22.254Z,23.9
2018-05-15T12:28:13.462Z,23.9
2018-05-15T12:29:02.793Z,23.9
2018-05-15T12:29:52.860Z,23.9
2018-05-15T12:30:42.321Z,23.9
2018-05-15T12:31:32.916Z,23.9
2018-05-15T12:32:22.398Z,23.8
2018-05-15T12:33:11.991Z,23.8
2018-05-15T12:34:02.826Z,23.8
2018-05-15T12:34:53.206Z,23.8
2018-05-15T12:35:42.816Z,23.9
2018-05-15T12:36:32.762Z,23.9
2018-05-15T12:37:22.580Z,23.9
2018-05-15T12:38:13.377Z,23.9
2018-05-15T12:39:02.968Z,23.9
2018-05-15T12:39:53.245Z,23.9
2018-05-15T12:40:43.610Z,23.9
2018-05-15T12:41:35.955Z,24
2018-05-15T12:42:23.430Z,24
2018-05-15T12:43:13.331Z,23.9
2018-05-15T12:44:03.598Z,23.9
2018-05-15T12:44:53.106Z,23.9
2018-05-15T12:45:43.974Z,23.9
2018-05-15T12:46:33.816Z,23.9
2018-05-15T12:47:23.945Z,23.9
2018-05-15T12:48:15.104Z,23.9
2018-05-15T12:49:04.344Z,23.8
2018-05-15T12:49:53.787Z,23.9
2018-05-15T12:50:43.803Z,23.8
2018-05-15T12:51:33.294Z,23.8
2018-05-15T12:52:23.087Z,23.9
2018-05-15T12:53:14.027Z,23.9
2018-05-15T12:54:05.624Z,23.9
2018-05-15T12:54:54.499Z,23.9
2018-05-15T12:55:44.419Z,23.9
2018-05-15T12:56:34.275Z,23.8
2018-05-15T12:57:24.619Z,23.8
2018-05-15T12:58:14.412Z,23.8
2018-05-15T12:59:03.605Z,23.8
2018-05-15T12:59:55.102Z,23.7
2018-05-15T13:00:44.883Z,23.7
2018-05-15T13:01:35.248Z,23.8
2018-05-15T13:02:24.429Z,23.8
2018-05-15T13:03:13.918Z,23.8
2018-05-15T13:04:04.539Z,23.8
2018-05-15T13:04:54.950Z,23.8
2018-05-15T13:05:44.505Z,23.8
2018-05-15T13:06:35.368Z,23.9
2018-05-15T13:07:25.732Z,23.9
2018-05-15T13:08:14.909Z,23.9
2018-05-15T15:02:30.639Z,22.9
2018-05-15T15:03:20.429Z,22.8
2018-05-15T15:04:10.517Z,22.7
2018-05-15T15:05:00.374Z,22.7
2018-05-15T15:05:50.363Z,22.8
2018-05-15T15:06:40.101Z,22.8
2018-05-15T15:07:30.754Z,22.9
2018-05-15T15:08:20.899Z,22.9
2018-05-15T15:09:10.874Z,22.9
2018-05-15T15:10:01.608Z,22.9
2018-05-15T15:10:51.311Z,22.9
2018-05-15T15:11:41.173Z,22.9
2018-05-15T15:12:31.466Z,22.9
2018-05-15T15:13:21.224Z,23
2018-05-15T15:14:11.040Z,23
2018-05-15T15:15:01.666Z,23
2018-05-15T15:15:50.826Z,23
2018-05-15T15:16:41.476Z,22.9
2018-05-15T15:17:31.388Z,22.9
2018-05-15T15:18:21.335Z,23
2018-05-15T15:19:12.508Z,22.9
2018-05-15T15:20:02.003Z,22.9
2018-05-15T15:20:51.529Z,22.9
2018-05-15T15:21:42.217Z,22.9
2018-05-15T15:22:32.233Z,22.9
2018-05-15T15:23:22.206Z,22.9
2018-05-15T15:24:12.405Z,22.9
2018-05-15T15:25:02.608Z,22.9
2018-05-15T15:25:52.168Z,22.8
2018-05-15T15:26:41.736Z,22.8
2018-05-15T15:27:32.552Z,22.7
2018-05-15T15:28:22.961Z,22.7
2018-05-15T15:29:12.730Z,22.7
2018-05-15T15:30:02.942Z,22.7
2018-05-15T15:30:52.559Z,22.8
2018-05-15T15:31:42.588Z,22.8
2018-05-15T15:32:32.993Z,22.8
2018-05-15T15:33:22.452Z,22.8
2018-05-15T15:34:12.053Z,22.8
2018-05-15T15:35:03.227Z,22.8
2018-05-15T15:35:52.272Z,22.8
2018-05-15T15:36:42.746Z,22.8
2018-05-15T15:37:32.497Z,22.8
2018-05-15T15:38:22.606Z,22.8
2018-05-15T15:39:13.763Z,22.8
2018-05-15T15:40:03.015Z,22.8
2018-05-15T15:40:52.765Z,22.7
2018-05-15T15:41:42.873Z,22.7
2018-05-15T15:42:34.305Z,22.7
2018-05-15T15:43:22.956Z,22.6
2018-05-15T15:44:13.882Z,22.7
2018-05-15T15:45:03.784Z,22.7
2018-05-15T15:45:53.465Z,22.7
2018-05-15T15:46:43.245Z,22.7
2018-05-15T15:47:33.595Z,22.8
2018-05-15T15:48:23.626Z,22.8
2018-05-15T15:49:14.513Z,22.8
2018-05-15T15:50:03.185Z,22.8
2018-05-15T15:50:53.903Z,22.8
2018-05-15T15:51:44.129Z,22.8
2018-05-15T15:52:33.923Z,22.8
2018-05-15T15:53:24.555Z,22.8
2018-05-15T15:54:14.391Z,22.8
2018-05-15T15:55:04.967Z,22.8
2018-05-15T15:55:54.943Z,22.9
2018-05-15T15:56:44.573Z,22.9
2018-05-15T15:57:34.205Z,22.9
2018-05-15T15:58:25.421Z,22.9
2018-05-15T15:59:15.500Z,22.9
2018-05-15T16:00:05.305Z,22.8
2018-05-15T16:00:55.598Z,22.8
2018-05-15T16:01:46.078Z,22.8
2018-05-15T16:02:35.215Z,22.9
2018-05-15T16:03:25.289Z,22.9
2018-05-15T16:04:16.679Z,22.8
2018-05-15T16:05:04.654Z,22.8
2018-05-15T16:05:55.531Z,22.9
2018-05-15T16:06:46.704Z,22.9
2018-05-15T16:07:35.287Z,22.9
2018-05-15T16:08:26.737Z,22.8
2018-05-15T16:09:16.321Z,22.9
2018-05-15T16:10:09.379Z,22.9
2018-05-15T16:10:56.068Z,22.8
2018-05-15T16:11:46.426Z,22.9
2018-05-15T16:12:36.272Z,22.9
2018-05-15T16:13:27.146Z,22.9
2018-05-15T16:14:16.055Z,22.9
2018-05-15T16:15:06.719Z,22.9
2018-05-15T16:15:57.040Z,22.9
2018-05-15T16:16:45.808Z,22.9
2018-05-15T16:17:37.141Z,22.9
2018-05-15T16:18:26.690Z,22.9
2018-05-15T16:19:16.731Z,22.9
2018-05-15T16:20:06.839Z,22.9
2018-05-15T16:20:57.177Z,22.9
2018-05-15T16:21:47.000Z,22.9
2018-05-15T16:22:37.266Z,22.9
2018-05-15T16:23:26.758Z,22.9
2018-05-15T16:24:16.819Z,22.9
2018-05-15T16:25:07.242Z,22.9
2018-05-15T16:25:56.963Z,22.9
2018-05-15T16:26:47.896Z,22.9
2018-05-15T16:27:37.393Z,22.9
2018-05-15T16:28:27.726Z,22.9
2018-05-15T16:29:17.884Z,22.9
2018-05-15T16:30:07.838Z,22.9
2018-05-15T16:30:57.653Z,22.9
2018-05-15T16:31:47.708Z,22.9
2018-05-15T16:32:38.333Z,22.9
2018-05-15T16:33:27.844Z,22.9
2018-05-15T16:34:17.624Z,22.9
2018-05-15T16:35:07.494Z,22.9
2018-05-15T16:35:57.275Z,22.9
2018-05-15T16:36:47.120Z,22.9
2018-05-15T16:37:37.275Z,22.9
2018-05-15T16:38:28.355Z,22.9
2018-05-15T16:39:17.036Z,22.9
2018-05-15T16:40:07.413Z,22.9
2018-05-15T16:40:58.467Z,22.9
2018-05-15T16:41:48.268Z,22.8
2018-05-15T16:42:38.316Z,22.8
2018-05-15T16:43:29.092Z,22.8
2018-05-15T16:44:18.541Z,22.8
2018-05-15T16:45:08.828Z,22.8
2018-05-15T16:45:58.338Z,22.7
2018-05-15T16:46:48.704Z,22.6
2018-05-15T16:47:39.364Z,22.6
2018-05-15T16:48:28.785Z,22.4
2018-05-15T16:49:18.949Z,22.4
2018-05-15T16:50:08.395Z,22.3
2018-05-15T16:50:57.866Z,22.3
2018-05-15T16:51:49.023Z,22.3
2018-05-15T16:52:39.213Z,22.3
2018-05-15T16:53:30.422Z,22.3
2018-05-15T16:54:19.503Z,22.3
2018-05-15T16:55:09.080Z,22.3
2018-05-15T16:55:58.809Z,22.2
2018-05-15T16:56:49.716Z,22.3
2018-05-15T16:57:38.956Z,22.3
2018-05-15T16:58:28.774Z,22.4
2018-05-15T16:59:18.540Z,22.4
2018-05-15T17:00:08.876Z,22.4
2018-05-15T17:00:59.556Z,22.5
2018-05-15T17:01:50.222Z,22.6
2018-05-15T17:02:39.063Z,22.6
2018-05-15T17:03:29.673Z,22.6
2018-05-15T17:04:19.479Z,22.6
2018-05-15T17:05:09.316Z,22.6
2018-05-15T17:05:59.968Z,22.6
2018-05-15T17:06:49.495Z,22.7
2018-05-15T17:07:39.713Z,22.7
2018-05-15T17:08:30.085Z,22.7
2018-05-15T17:09:20.693Z,22.8
2018-05-15T17:10:10.487Z,22.7
2018-05-15T17:10:59.417Z,22.6
2018-05-15T17:11:50.891Z,22.5
2018-05-15T17:12:40.122Z,22.5
2018-05-15T17:13:31.351Z,22.5
2018-05-15T17:14:20.027Z,22.4
2018-05-15T17:15:10.628Z,22.4
2018-05-15T17:16:00.642Z,22.4
2018-05-15T17:16:50.982Z,22.4
2018-05-15T17:17:41.380Z,22.3
2018-05-15T17:18:30.228Z,22.3
2018-05-15T17:19:21.164Z,22.3
2018-05-15T17:20:10.957Z,22.2
2018-05-15T17:21:01.108Z,22.2
2018-05-15T17:21:51.631Z,22.2
2018-05-15T17:22:40.344Z,22.2
2018-05-15T17:23:30.455Z,22.2
2018-05-15T17:24:20.314Z,22.2
2018-05-15T17:25:11.457Z,22.2
2018-05-15T17:26:00.648Z,22.2
2018-05-15T17:26:51.106Z,22.3
2018-05-15T17:27:41.318Z,22.3
2018-05-15T17:28:31.121Z,22.3
2018-05-15T17:29:20.312Z,22.3
2018-05-15T17:30:11.349Z,22.4
2018-05-15T17:31:01.629Z,22.4
2018-05-15T17:31:52.428Z,22.5
2018-05-15T17:32:41.542Z,22.4
2018-05-15T17:33:32.049Z,22.4
2018-05-15T17:34:20.951Z,22.4
2018-05-15T17:35:12.481Z,22.5
2018-05-15T17:36:01.705Z,22.5
2018-05-15T17:36:52.563Z,22.4
2018-05-15T17:37:42.580Z,22.4
2018-05-15T17:38:32.053Z,22.4
2018-05-15T17:39:22.386Z,22.4
2018-05-15T17:40:12.298Z,22.4
2018-05-15T17:41:04.003Z,22.4
2018-05-15T17:41:51.744Z,22.4
2018-05-15T17:42:42.971Z,22.4
2018-05-15T17:43:33.301Z,22.4
2018-05-15T17:44:23.334Z,22.4
2018-05-15T17:45:13.260Z,22.4
2018-05-15T17:46:03.184Z,22.5
2018-05-15T17:46:53.545Z,22.5
2018-05-15T17:47:43.291Z,22.6
2018-05-15T17:48:33.109Z,22.6
2018-05-15T17:49:22.325Z,22.6
2018-05-15T17:50:13.015Z,22.6
2018-05-15T17:51:03.105Z,22.6
2018-05-15T17:51:53.252Z,22.6
2018-05-15T17:52:42.992Z,22.6
2018-05-15T17:53:33.773Z,22.6
2018-05-15T17:54:23.555Z,22.6
2018-05-15T17:55:13.059Z,22.6
2018-05-15T17:56:03.140Z,22.6
2018-05-15T17:56:53.495Z,22.6
2018-05-15T17:57:44.414Z,22.6
2018-05-15T17:58:34.378Z,22.6
2018-05-15T17:59:26.068Z,22.6
2018-05-15T18:00:14.207Z,22.7
2018-05-15T18:01:03.164Z,22.6
2018-05-15T18:01:54.603Z,22.6
2018-05-15T18:02:45.238Z,22.6
2018-05-15T18:03:34.233Z,22.6
2018-05-15T18:04:25.351Z,22.6
2018-05-15T18:05:14.585Z,22.6
2018-05-15T18:06:04.939Z,22.6
2018-05-15T18:06:54.494Z,22.6
2018-05-15T18:07:45.345Z,22.7
2018-05-15T18:08:35.991Z,22.6
2018-05-15T18:09:25.481Z,22.6
2018-05-15T18:10:14.766Z,22.6
2018-05-15T18:11:04.809Z,22.5
2018-05-15T18:11:55.006Z,22.5
2018-05-15T18:12:44.230Z,22.6
2018-05-15T18:13:34.538Z,22.6
2018-05-15T18:14:24.989Z,22.6
2018-05-15T18:15:16.477Z,22.6
2018-05-15T18:16:05.138Z,22.6
2018-05-15T18:16:55.753Z,22.6
2018-05-15T18:17:46.132Z,22.7
2018-05-15T18:18:36.482Z,22.6
2018-05-15T18:19:25.763Z,22.6
2018-05-15T18:20:16.104Z,22.6
2018-05-15T18:21:07.040Z,22.6
2018-05-15T18:21:56.884Z,22.6
2018-05-15T18:22:45.172Z,22.5
2018-05-15T18:23:36.362Z,22.4
2018-05-15T18:24:26.435Z,22.4
2018-05-15T18:25:15.634Z,22.4
2018-05-15T18:26:06.054Z,22.4
2018-05-15T18:26:55.744Z,22.4
2018-05-15T18:27:46.827Z,22.4
2018-05-15T18:28:36.224Z,22.5
2018-05-15T18:29:26.227Z,22.5
2018-05-15T18:30:16.793Z,22.5
2018-05-15T18:31:06.739Z,22.4
2018-05-15T18:31:56.791Z,22.4
2018-05-15T18:32:46.226Z,22.5
2018-05-15T18:33:37.147Z,22.5
2018-05-15T18:34:26.596Z,22.6
2018-05-15T18:35:16.427Z,22.6
2018-05-15T18:36:07.403Z,22.6
2018-05-15T18:36:56.554Z,22.6
2018-05-15T18:37:46.876Z,22.6
2018-05-15T18:38:37.496Z,22.6
2018-05-15T18:39:27.346Z,22.6
2018-05-15T18:40:17.046Z,22.6
2018-05-15T18:41:06.839Z,22.6
2018-05-15T18:41:57.163Z,22.6
2018-05-15T18:42:47.761Z,22.6
2018-05-15T18:43:37.288Z,22.6
2018-05-15T18:44:27.627Z,22.6
2018-05-15T18:45:18.536Z,22.6
2018-05-15T18:46:07.189Z,22.6
2018-05-15T18:46:57.575Z,22.6
2018-05-15T18:47:47.641Z,22.6
2018-05-15T18:48:38.322Z,22.6
2018-05-15T18:49:28.050Z,22.7
2018-05-15T18:50:17.611Z,22.7
2018-05-15T18:51:08.532Z,22.6
2018-05-15T18:51:58.649Z,22.7
2018-05-15T18:52:47.491Z,22.6
2018-05-15T18:53:38.491Z,22.6
2018-05-15T18:54:28.706Z,22.6
2018-05-15T18:55:18.021Z,22.6
2018-05-15T18:56:08.117Z,22.6
2018-05-15T18:56:58.655Z,22.6
2018-05-15T18:57:48.157Z,22.6
2018-05-15T18:58:38.534Z,22.6
2018-05-15T18:59:29.224Z,22.6
2018-05-15T19:00:18.132Z,22.6
2018-05-15T19:01:09.011Z,22.6
2018-05-15T19:01:58.695Z,22.6
2018-05-15T19:02:49.289Z,22.5
2018-05-15T19:03:39.672Z,22.4
2018-05-15T19:04:29.183Z,22.5
2018-05-15T19:05:20.308Z,22.4
2018-05-15T19:06:09.532Z,22.4
2018-05-15T19:07:00.566Z,22.4
2018-05-15T19:07:49.125Z,22.4
2018-05-15T19:08:39.504Z,22.5
2018-05-15T19:09:28.988Z,22.6
2018-05-15T19:10:19.641Z,22.6
2018-05-15T19:11:09.593Z,22.6
2018-05-15T19:11:59.354Z,22.6
2018-05-15T19:12:49.661Z,22.5
2018-05-15T19:13:39.122Z,22.5
2018-05-15T19:14:30.553Z,22.5
2018-05-15T19:15:20.349Z,22.4
2018-05-15T19:16:09.556Z,22.4
2018-05-15T19:17:00.542Z,22.4
2018-05-15T19:17:50.547Z,22.4
2018-05-15T19:18:40.135Z,22.4
2018-05-15T19:19:31.206Z,22.3
2018-05-15T19:20:20.706Z,22.3
2018-05-15T19:21:10.025Z,22.3
2018-05-15T19:22:00.411Z,22.3
2018-05-15T19:22:49.881Z,22.3
2018-05-15T19:23:41.075Z,22.4
2018-05-15T19:24:30.856Z,22.3
2018-05-15T19:25:20.652Z,22.3
2018-05-15T19:26:09.308Z,22.3
2018-05-15T19:27:01.235Z,22.3
2018-05-15T19:27:51.384Z,22.3
2018-05-15T19:28:41.647Z,22.3
2018-05-15T19:29:31.746Z,22.3
2018-05-15T19:30:21.789Z,22.3
2018-05-15T19:31:11.037Z,22.3
2018-05-15T19:32:01.984Z,22.3
2018-05-15T19:32:51.971Z,22.3
2018-05-15T19:33:41.783Z,22.3
2018-05-15T19:34:31.836Z,22.3
2018-05-15T19:35:21.902Z,22.3
2018-05-15T19:36:11.966Z,22.2
2018-05-15T19:37:02.576Z,22.3
2018-05-15T19:37:52.115Z,22.3
2018-05-15T19:38:41.843Z,22.3
2018-05-15T19:39:32.041Z,22.2
2018-05-15T19:40:22.242Z,22.3
2018-05-15T19:41:12.658Z,22.2
2018-05-15T19:42:01.812Z,22.2
2018-05-15T19:42:52.459Z,22.2
2018-05-15T19:43:42.781Z,22.3
2018-05-15T19:44:47.223Z,22.2
2018-05-15T19:45:22.503Z,22.3
2018-05-15T19:46:12.693Z,22.3
2018-05-15T19:47:01.884Z,22.3
2018-05-15T19:47:52.880Z,22.3
2018-05-15T19:48:42.897Z,22.3
2018-05-15T19:49:33.009Z,22.3
2018-05-15T19:50:23.359Z,22.2
2018-05-15T19:51:13.450Z,22.3
2018-05-15T19:52:03.640Z,22.3
2018-05-15T19:52:53.156Z,22.3
2018-05-15T19:53:42.934Z,22.2
2018-05-15T19:54:32.745Z,22.3
2018-05-15T19:55:23.455Z,22.3
2018-05-15T19:56:13.753Z,22.3
2018-05-15T19:57:03.818Z,22.3
2018-05-15T19:57:52.749Z,22.3
2018-05-15T19:58:43.974Z,22.3
2018-05-15T19:59:33.130Z,22.3
2018-05-15T20:00:23.811Z,22.3
2018-05-15T20:01:14.107Z,22.3
2018-05-15T20:02:04.742Z,22.3
2018-05-15T20:02:54.265Z,22.3
2018-05-15T20:03:43.816Z,22.3
2018-05-15T20:04:34.407Z,22.3
2018-05-15T20:05:24.172Z,22.3
2018-05-15T20:06:14.244Z,22.3
2018-05-15T20:07:04.584Z,22.3
2018-05-15T20:07:54.595Z,22.3
2018-05-15T20:08:44.616Z,22.3
2018-05-15T20:09:34.671Z,22.3
2018-05-15T20:10:24.157Z,22.2
2018-05-15T20:11:15.101Z,22.2
2018-05-15T20:12:05.125Z,22.2
2018-05-15T20:12:53.847Z,22.2
2018-05-15T20:13:44.462Z,22.2
2018-05-15T20:14:35.034Z,22.2
2018-05-15T20:15:24.389Z,22.2
2018-05-15T20:16:16.156Z,22.2
2018-05-15T20:17:04.935Z,22.2
2018-05-15T20:17:55.310Z,22.2
2018-05-15T20:18:44.231Z,22.2
2018-05-15T20:19:35.395Z,22.2
2018-05-15T20:20:25.263Z,22.2
2018-05-15T20:21:15.266Z,22.2
2018-05-15T20:22:05.027Z,22.2
2018-05-15T20:22:56.047Z,22.2
2018-05-15T20:23:46.231Z,22.1
2018-05-15T20:24:35.240Z,22.1
2018-05-15T20:25:25.560Z,22.1
2018-05-15T20:26:15.377Z,22.2
2018-05-15T20:27:05.689Z,22.1
2018-05-15T20:27:55.567Z,22.1
2018-05-15T20:28:46.155Z,22.1
2018-05-15T20:29:36.291Z,22.1
2018-05-15T20:30:25.728Z,22.1
2018-05-15T20:31:15.769Z,22.1
2018-05-15T20:32:05.303Z,22.1
2018-05-15T20:32:55.055Z,22.1
2018-05-15T20:33:46.288Z,22.1
2018-05-15T20:34:36.058Z,22.1
2018-05-15T20:35:26.334Z,22.1
2018-05-15T20:36:16.472Z,22.1
2018-05-15T20:37:06.222Z,22.1
2018-05-15T20:37:55.567Z,22.1
2018-05-15T20:38:46.320Z,22.1
2018-05-15T20:39:35.357Z,22.1
2018-05-15T20:40:26.473Z,22.1
2018-05-15T20:41:16.570Z,22.1
2018-05-15T20:42:07.348Z,22.1
2018-05-15T20:42:57.521Z,22.1
2018-05-15T20:43:46.991Z,22.1
2018-05-15T20:44:36.752Z,22.1
2018-05-15T20:45:26.541Z,22.1
2018-05-15T20:46:17.721Z,22.1
2018-05-15T20:47:07.779Z,22.1
2018-05-15T20:47:57.577Z,22.1
2018-05-15T20:48:47.068Z,22.1
2018-05-15T20:49:36.427Z,22.1
2018-05-15T20:50:26.968Z,22.1
2018-05-15T20:51:17.038Z,22.1
2018-05-15T20:52:07.688Z,22.1
2018-05-15T20:52:57.173Z,22.1
2018-05-15T20:53:47.512Z,22.1
2018-05-15T20:54:37.661Z,22.1
2018-05-15T20:55:27.403Z,22.1
2018-05-15T20:56:16.957Z,22.1
2018-05-15T20:57:07.776Z,22.2
2018-05-15T20:57:56.987Z,22.3
2018-05-15T20:58:48.224Z,22.3
2018-05-15T20:59:38.486Z,22.3
2018-05-15T21:00:28.254Z,22.3
2018-05-15T21:01:17.537Z,22.3
2018-05-15T21:02:08.144Z,22.3
2018-05-15T21:02:58.468Z,22.2
2018-05-15T21:03:48.558Z,22.2
2018-05-15T21:04:37.166Z,22.3
2018-05-15T21:05:28.113Z,22.3
2018-05-15T21:06:32.498Z,22.3
2018-05-15T21:07:08.527Z,22.4
2018-05-15T21:07:58.828Z,22.4
2018-05-15T21:08:48.940Z,22.4
2018-05-15T21:09:38.976Z,22.4
2018-05-15T21:10:29.376Z,22.4
2018-05-15T21:11:19.398Z,22.4
2018-05-15T21:12:09.156Z,22.4
2018-05-15T21:12:58.601Z,22.4
2018-05-15T21:13:49.259Z,22.4
2018-05-15T21:14:38.211Z,22.3
2018-05-15T21:15:29.425Z,22.4
2018-05-15T21:16:19.739Z,22.4
2018-05-15T21:17:09.892Z,22.4
2018-05-15T21:17:59.957Z,22.4
2018-05-15T21:18:49.680Z,22.4
2018-05-15T21:19:39.443Z,22.4
2018-05-15T21:20:29.892Z,22.4
2018-05-15T21:21:20.279Z,22.4
2018-05-15T21:22:10.460Z,22.4
2018-05-15T21:23:00.256Z,22.4
2018-05-15T21:23:50.336Z,22.4
2018-05-15T21:24:39.535Z,22.4
2018-05-15T21:25:30.398Z,22.4
2018-05-15T21:26:19.945Z,22.4
2018-05-15T21:27:09.082Z,22.5
2018-05-15T21:27:59.333Z,22.4
2018-05-15T21:28:49.231Z,22.4
2018-05-15T21:29:39.940Z,22.4
2018-05-15T21:30:29.707Z,22.4
2018-05-15T21:31:19.135Z,22.4
2018-05-15T21:32:08.085Z,22.4
2018-05-15T21:32:59.959Z,22.4
2018-05-15T21:33:50.063Z,22.4
2018-05-15T21:34:39.862Z,22.4
2018-05-15T21:35:29.796Z,22.3
2018-05-15T21:36:18.876Z,22.3
2018-05-15T21:37:10.499Z,22.3
2018-05-15T21:38:00.294Z,22.3
2018-05-15T21:38:49.669Z,22.3
2018-05-15T21:39:41.034Z,22.3
2018-05-15T21:40:29.706Z,22.3
2018-05-15T21:41:20.355Z,22.4
2018-05-15T21:42:11.141Z,22.4
2018-05-15T21:43:01.604Z,22.4
2018-05-15T21:43:51.010Z,22.4
2018-05-15T21:44:41.587Z,22.4
2018-05-15T21:45:31.119Z,22.4
2018-05-15T21:46:22.098Z,22.4
2018-05-15T21:47:12.237Z,22.4
2018-05-15T21:48:02.470Z,22.3
2018-05-15T21:48:51.678Z,22.3
2018-05-15T21:49:42.293Z,22.3
2018-05-15T21:50:31.475Z,22.3
2018-05-15T21:51:22.182Z,22.3
2018-05-15T21:52:12.178Z,22.3
2018-05-15T21:53:02.249Z,22.3
2018-05-15T21:53:51.787Z,22.3
2018-05-15T21:54:41.843Z,22.3
2018-05-15T21:55:33.013Z,22.3
2018-05-15T21:56:22.519Z,22.3
2018-05-15T21:57:13.147Z,22.3
2018-05-15T21:58:01.767Z,22.3
2018-05-15T21:58:52.986Z,22.3
2018-05-15T21:59:42.803Z,22.3
2018-05-15T22:00:31.986Z,22.3
2018-05-15T22:01:23.201Z,22.3
2018-05-15T22:02:12.662Z,22.3
2018-05-15T22:03:03.005Z,22.3
2018-05-15T22:03:53.455Z,22.3
2018-05-15T22:04:43.436Z,22.3
2018-05-15T22:05:32.620Z,22.3
2018-05-15T22:06:23.550Z,22.3
2018-05-15T22:07:13.639Z,22.3
2018-05-15T22:08:02.852Z,22.4
2018-05-15T22:08:53.779Z,22.3
2018-05-15T22:09:44.057Z,22.3
2018-05-15T22:10:34.141Z,22.3
2018-05-15T22:11:23.621Z,22.3
2018-05-15T22:12:13.703Z,22.3
2018-05-15T22:13:04.316Z,22.2
2018-05-15T22:13:54.409Z,22.1
2018-05-15T22:14:44.156Z,22.1
2018-05-15T22:15:34.504Z,22.2
2018-05-15T22:16:24.303Z,22.2
2018-05-15T22:17:14.093Z,22.3
2018-05-15T22:18:04.476Z,22.3
2018-05-15T22:18:54.910Z,22.3
2018-05-15T22:19:44.306Z,22.3
2018-05-15T22:20:35.390Z,22.3
2018-05-15T22:21:24.408Z,22.3
2018-05-15T22:22:14.991Z,22.4
2018-05-15T22:23:04.531Z,22.4
2018-05-15T22:23:54.604Z,22.4
2018-05-15T22:24:45.191Z,22.3
2018-05-15T22:25:34.813Z,22.2
2018-05-15T22:26:25.165Z,22.1
2018-05-15T22:27:15.441Z,22.1
2018-05-15T22:28:04.392Z,22.1
2018-05-15T22:28:54.700Z,22.1
2018-05-15T22:29:45.418Z,22.1
2018-05-15T22:30:34.880Z,22
2018-05-15T22:31:25.759Z,21.9
2018-05-15T22:32:15.521Z,21.9
2018-05-15T22:33:05.597Z,21.9
2018-05-15T22:33:55.955Z,22
2018-05-15T22:34:46.011Z,22.1
2018-05-15T22:35:35.198Z,22.1
2018-05-15T22:36:25.823Z,22.1
2018-05-15T22:37:15.909Z,22.1
2018-05-15T22:38:06.227Z,22.1
2018-05-15T22:38:56.298Z,22.2
2018-05-15T22:39:46.084Z,22.3
2018-05-15T22:40:35.637Z,22.3
2018-05-15T22:41:25.955Z,22.3
2018-05-15T22:42:16.058Z,22.3
2018-05-15T22:43:06.357Z,22.3
2018-05-15T22:43:55.881Z,22.2
2018-05-15T22:44:45.960Z,22.1
2018-05-15T22:45:36.299Z,22.1
2018-05-15T22:46:25.213Z,22.1
2018-05-15T22:47:16.128Z,22.1
2018-05-15T22:48:06.190Z,22
2018-05-15T22:48:56.870Z,22
2018-05-15T22:49:46.063Z,22
2018-05-15T22:50:37.044Z,22.1
2018-05-15T22:51:26.728Z,22.1
2018-05-15T22:52:16.815Z,22.1
2018-05-15T22:53:06.312Z,22.1
2018-05-15T22:53:57.305Z,22
2018-05-15T22:54:45.175Z,22
2018-05-15T22:55:36.792Z,22
2018-05-15T22:56:26.277Z,22
2018-05-15T22:57:15.168Z,22
2018-05-15T22:58:05.864Z,22
2018-05-15T22:58:56.706Z,22
2018-05-15T22:59:45.884Z,22
2018-05-15T23:00:35.841Z,22
2018-05-15T23:01:26.426Z,21.9
2018-05-15T23:02:17.326Z,21.9
2018-05-15T23:03:06.283Z,21.9
2018-05-15T23:03:57.263Z,21.9
2018-05-15T23:04:46.329Z,21.9
2018-05-15T23:05:37.353Z,21.9
2018-05-15T23:06:26.143Z,21.9
2018-05-15T23:07:17.693Z,21.9
2018-05-15T23:08:06.763Z,21.9
2018-05-15T23:08:57.521Z,22
2018-05-15T23:09:47.905Z,22.1
2018-05-15T23:10:37.670Z,22.1
2018-05-15T23:11:27.164Z,22.1
2018-05-15T23:12:17.015Z,22.2
2018-05-15T23:13:08.177Z,22.2
2018-05-15T23:13:57.755Z,22.3
2018-05-15T23:14:47.671Z,22.3
2018-05-15T23:15:38.482Z,22.3
2018-05-15T23:16:27.758Z,22.3
2018-05-15T23:17:18.440Z,22.3
2018-05-15T23:18:07.162Z,22.3
2018-05-15T23:18:58.121Z,22.3
2018-05-15T23:19:48.072Z,22.3
2018-05-15T23:20:37.630Z,22.3
2018-05-15T23:21:26.929Z,22.3
2018-05-15T23:22:18.370Z,22.3
2018-05-15T23:23:07.841Z,22.3
2018-05-15T23:23:59.238Z,22.3
2018-05-15T23:24:48.360Z,22.3
2018-05-15T23:25:38.809Z,22.3
2018-05-15T23:26:27.632Z,22.3
2018-05-15T23:27:17.850Z,22.3
2018-05-15T23:28:09.248Z,22.3
2018-05-15T23:28:58.470Z,22.3
2018-05-15T23:29:49.374Z,22.3
2018-05-15T23:30:39.466Z,22.3
2018-05-15T23:31:30.030Z,22.3
2018-05-15T23:32:20.105Z,22.3
2018-05-15T23:33:09.637Z,22.3
2018-05-15T23:34:00.237Z,22.3
2018-05-15T23:34:50.580Z,22.3
2018-05-15T23:35:39.552Z,22.3
2018-05-15T23:36:30.696Z,22.3
2018-05-15T23:37:20.754Z,22.3
2018-05-15T23:38:10.279Z,22.3
2018-05-15T23:39:00.327Z,22.3
2018-05-15T23:39:49.844Z,22.3
2018-05-15T23:40:40.486Z,22.3
2018-05-15T23:41:30.536Z,22.3
2018-05-15T23:42:20.316Z,22.3
2018-05-15T23:43:11.271Z,22.3
2018-05-15T23:44:00.726Z,22.3
2018-05-15T23:44:50.803Z,22.3
2018-05-15T23:45:40.585Z,22.3
2018-05-15T23:46:30.431Z,22.3
2018-05-15T23:47:21.260Z,22.3
2018-05-15T23:48:10.875Z,22.3
2018-05-15T23:48:59.719Z,22.3
2018-05-15T23:49:51.788Z,22.3
2018-05-15T23:50:41.514Z,22.3
2018-05-15T23:51:31.720Z,22.3
2018-05-15T23:52:21.762Z,22.3
2018-05-15T23:53:11.998Z,22.2
2018-05-15T23:54:01.253Z,22.3
2018-05-15T23:54:51.264Z,22.2
2018-05-15T23:55:41.686Z,22.3
2018-05-15T23:56:31.138Z,22.3